If you wish to contribute or participate in the discussions about articles you are invited to join SKYbrary as a registered user

 Actions

Lanai Airport

From SKYbrary Wiki

PHNY
Airport
ICAO: PHNY
Summary
Name Lanai Airport
Region North America
Territory Hawaii US.gif
Location Lanai City
Serving
Coordinates 20° 47' 8.00" N, 156° 57' 5.00" W
Runways
Designator Length Width Surface ROPS
3/21 1524 m5,000 ft
46 m150.919 ft
ASP yes/yes


METAR
Observation PHNY 220756Z AUTO 03005KT 10SM CLR 22/22 A3009 RMK AO2 SLP167 T02170217 $
Station Lanai City, Lanai Airport
Date/Time 22 October 2019 07:56:00
Wind direction 30°
Wind speed 05 kts
Lowest cloud amount n/a
Temperature 21.7°C
Dew point 21.7°C
Humidity 100%
QNH hPa
Weather condition n/a

Lanai Airport

ICAO: PHNY IATA: LNY

Description

Lanai Airport, is a public use airport located 6 km3.24 nm
6,000 m
19,685.039 ft
southwest of the central business district of Lanai City, in Maui County, Hawaii. It is the only airport serving the island of Lanai.

Climatology

Tropical Savanna climate (Köppen climate classification As) - monthly mean temperature above 18°C64.4 °F
291.15 K
524.07 °R
in every month of the year and a pronounced dry season.

Maps

Terrain

Loading map...

Airport Layout

Loading map...



Accidents & Serious Incidents at or in vicinity of PHNY

None on SKYbrary